sensor_id;sensor_type;location;lat;lon;timestamp;temperature;humidity
69595;DHT22;56800;52.142;5.364;2023-07-09T00:02:14;25.40;48.70
69595;DHT22;56800;52.142;5.364;2023-07-09T00:04:41;25.40;48.70
69595;DHT22;56800;52.142;5.364;2023-07-09T00:07:19;25.40;48.90
69595;DHT22;56800;52.142;5.364;2023-07-09T00:09:47;25.30;49.00
69595;DHT22;56800;52.142;5.364;2023-07-09T00:12:15;25.30;49.20
69595;DHT22;56800;52.142;5.364;2023-07-09T00:14:43;25.30;49.50
69595;DHT22;56800;52.142;5.364;2023-07-09T00:17:16;25.30;50.70
69595;DHT22;56800;52.142;5.364;2023-07-09T00:19:44;25.20;49.80
69595;DHT22;56800;52.142;5.364;2023-07-09T00:22:15;25.20;50.10
69595;DHT22;56800;52.142;5.364;2023-07-09T00:24:47;25.20;50.30
69595;DHT22;56800;52.142;5.364;2023-07-09T00:27:17;25.10;50.40
69595;DHT22;56800;52.142;5.364;2023-07-09T00:29:45;25.10;50.50
69595;DHT22;56800;52.142;5.364;2023-07-09T00:32:16;25.00;50.70
69595;DHT22;56800;52.142;5.364;2023-07-09T00:34:43;25.00;50.90
69595;DHT22;56800;52.142;5.364;2023-07-09T00:37:19;24.90;50.90
69595;DHT22;56800;52.142;5.364;2023-07-09T00:39:47;24.90;51.20
69595;DHT22;56800;52.142;5.364;2023-07-09T00:42:19;24.80;51.40
69595;DHT22;56800;52.142;5.364;2023-07-09T00:44:50;24.80;52.00
69595;DHT22;56800;52.142;5.364;2023-07-09T00:50:50;24.70;52.70
69595;DHT22;56800;52.142;5.364;2023-07-09T00:53:27;24.60;52.80
69595;DHT22;56800;52.142;5.364;2023-07-09T00:56:02;24.50;52.90
69595;DHT22;56800;52.142;5.364;2023-07-09T00:58:31;24.40;53.00
69595;DHT22;56800;52.142;5.364;2023-07-09T01:01:04;24.40;53.00
69595;DHT22;56800;52.142;5.364;2023-07-09T01:03:45;24.30;53.00
69595;DHT22;56800;52.142;5.364;2023-07-09T01:06:12;24.30;54.30
69595;DHT22;56800;52.142;5.364;2023-07-09T01:08:40;24.20;53.40
69595;DHT22;56800;52.142;5.364;2023-07-09T01:11:19;24.10;53.70
69595;DHT22;56800;52.142;5.364;2023-07-09T01:13:54;24.10;54.10
69595;DHT22;56800;52.142;5.364;2023-07-09T01:16:25;24.00;54.50
69595;DHT22;56800;52.142;5.364;2023-07-09T01:18:53;23.90;54.90
69595;DHT22;56800;52.142;5.364;2023-07-09T01:21:20;23.90;55.50
69595;DHT22;56800;52.142;5.364;2023-07-09T01:23:48;23.80;55.90
69595;DHT22;56800;52.142;5.364;2023-07-09T01:26:18;23.70;56.40
69595;DHT22;56800;52.142;5.364;2023-07-09T01:28:46;23.70;56.90
69595;DHT22;56800;52.142;5.364;2023-07-09T01:31:14;23.60;57.10
69595;DHT22;56800;52.142;5.364;2023-07-09T01:33:42;23.60;57.60
69595;DHT22;56800;52.142;5.364;2023-07-09T01:36:17;23.60;57.80
69595;DHT22;56800;52.142;5.364;2023-07-09T01:38:44;23.50;58.30
69595;DHT22;56800;52.142;5.364;2023-07-09T01:41:11;23.50;58.40
69595;DHT22;56800;52.142;5.364;2023-07-09T01:43:40;23.50;58.80
69595;DHT22;56800;52.142;5.364;2023-07-09T01:46:11;23.50;59.00
69595;DHT22;56800;52.142;5.364;2023-07-09T01:48:39;23.40;59.20
69595;DHT22;56800;52.142;5.364;2023-07-09T01:51:10;23.50;59.40
69595;DHT22;56800;52.142;5.364;2023-07-09T01:53:38;23.40;59.50
69595;DHT22;56800;52.142;5.364;2023-07-09T01:56:07;23.40;59.70
69595;DHT22;56800;52.142;5.364;2023-07-09T01:58:37;23.40;59.80
69595;DHT22;56800;52.142;5.364;2023-07-09T02:01:09;23.40;59.80
69595;DHT22;56800;52.142;5.364;2023-07-09T02:03:35;23.40;59.60
69595;DHT22;56800;52.142;5.364;2023-07-09T02:06:02;23.40;59.70
69595;DHT22;56800;52.142;5.364;2023-07-09T02:08:35;23.40;59.50
69595;DHT22;56800;52.142;5.364;2023-07-09T02:11:02;23.40;59.40
69595;DHT22;56800;52.142;5.364;2023-07-09T02:13:29;23.40;59.30
69595;DHT22;56800;52.142;5.364;2023-07-09T02:15:56;23.40;59.30
69595;DHT22;56800;52.142;5.364;2023-07-09T02:18:23;23.40;59.40
69595;DHT22;56800;52.142;5.364;2023-07-09T02:20:50;23.40;59.50
69595;DHT22;56800;52.142;5.364;2023-07-09T02:23:16;23.30;59.50
69595;DHT22;56800;52.142;5.364;2023-07-09T02:25:43;23.30;60.40
69595;DHT22;56800;52.142;5.364;2023-07-09T02:28:10;23.30;59.60
69595;DHT22;56800;52.142;5.364;2023-07-09T02:30:36;23.30;59.80
69595;DHT22;56800;52.142;5.364;2023-07-09T02:33:03;23.30;60.00
69595;DHT22;56800;52.142;5.364;2023-07-09T02:35:30;23.30;59.90
69595;DHT22;56800;52.142;5.364;2023-07-09T02:37:57;23.30;60.00
69595;DHT22;56800;52.142;5.364;2023-07-09T02:40:23;23.30;60.10
69595;DHT22;56800;52.142;5.364;2023-07-09T02:42:50;23.20;60.20
69595;DHT22;56800;52.142;5.364;2023-07-09T02:45:17;23.20;60.20
69595;DHT22;56800;52.142;5.364;2023-07-09T02:47:44;23.20;60.20
69595;DHT22;56800;52.142;5.364;2023-07-09T02:50:11;23.20;60.40
69595;DHT22;56800;52.142;5.364;2023-07-09T02:52:39;23.20;60.50
69595;DHT22;56800;52.142;5.364;2023-07-09T02:55:06;23.20;60.50
69595;DHT22;56800;52.142;5.364;2023-07-09T02:57:33;23.20;60.40
69595;DHT22;56800;52.142;5.364;2023-07-09T02:59:59;23.20;60.30
69595;DHT22;56800;52.142;5.364;2023-07-09T03:02:26;23.20;60.40
69595;DHT22;56800;52.142;5.364;2023-07-09T03:04:53;23.20;60.40
69595;DHT22;56800;52.142;5.364;2023-07-09T03:07:20;23.10;60.30
69595;DHT22;56800;52.142;5.364;2023-07-09T03:09:46;23.10;60.30
69595;DHT22;56800;52.142;5.364;2023-07-09T03:12:13;23.10;60.40
69595;DHT22;56800;52.142;5.364;2023-07-09T03:14:40;23.10;60.40
69595;DHT22;56800;52.142;5.364;2023-07-09T03:17:06;23.10;60.40
69595;DHT22;56800;52.142;5.364;2023-07-09T03:19:33;23.10;60.20
69595;DHT22;56800;52.142;5.364;2023-07-09T03:22:03;23.10;60.30
69595;DHT22;56800;52.142;5.364;2023-07-09T03:24:29;23.10;60.40
69595;DHT22;56800;52.142;5.364;2023-07-09T03:26:57;23.10;60.40
69595;DHT22;56800;52.142;5.364;2023-07-09T03:29:23;23.10;60.50
69595;DHT22;56800;52.142;5.364;2023-07-09T03:31:50;23.10;60.40
69595;DHT22;56800;52.142;5.364;2023-07-09T03:34:17;23.10;60.40
69595;DHT22;56800;52.142;5.364;2023-07-09T03:36:44;23.10;60.40
69595;DHT22;56800;52.142;5.364;2023-07-09T03:39:11;23.10;60.50
69595;DHT22;56800;52.142;5.364;2023-07-09T03:41:38;23.10;60.60
69595;DHT22;56800;52.142;5.364;2023-07-09T03:44:05;23.10;61.40
69595;DHT22;56800;52.142;5.364;2023-07-09T03:46:32;23.10;60.70
69595;DHT22;56800;52.142;5.364;2023-07-09T03:48:59;23.10;60.70
69595;DHT22;56800;52.142;5.364;2023-07-09T03:51:26;23.10;60.80
69595;DHT22;56800;52.142;5.364;2023-07-09T03:53:53;23.10;60.80
69595;DHT22;56800;52.142;5.364;2023-07-09T03:56:20;23.10;60.80
69595;DHT22;56800;52.142;5.364;2023-07-09T03:58:47;23.10;60.80
69595;DHT22;56800;52.142;5.364;2023-07-09T04:01:13;23.10;60.80
69595;DHT22;56800;52.142;5.364;2023-07-09T04:03:43;23.10;60.80
69595;DHT22;56800;52.142;5.364;2023-07-09T04:06:09;23.10;60.80
69595;DHT22;56800;52.142;5.364;2023-07-09T04:08:36;23.10;60.80
69595;DHT22;56800;52.142;5.364;2023-07-09T04:11:03;23.10;60.80
69595;DHT22;56800;52.142;5.364;2023-07-09T04:13:30;23.20;60.80
69595;DHT22;56800;52.142;5.364;2023-07-09T04:15:57;23.20;60.80
69595;DHT22;56800;52.142;5.364;2023-07-09T04:18:24;23.20;60.80
69595;DHT22;56800;52.142;5.364;2023-07-09T04:20:51;23.20;60.80
69595;DHT22;56800;52.142;5.364;2023-07-09T04:23:19;23.30;60.90
69595;DHT22;56800;52.142;5.364;2023-07-09T04:25:45;23.30;60.90
69595;DHT22;56800;52.142;5.364;2023-07-09T04:28:12;23.30;60.90
69595;DHT22;56800;52.142;5.364;2023-07-09T04:30:46;23.30;61.00
69595;DHT22;56800;52.142;5.364;2023-07-09T04:33:15;23.30;61.10
69595;DHT22;56800;52.142;5.364;2023-07-09T04:35:45;23.30;61.00
69595;DHT22;56800;52.142;5.364;2023-07-09T04:38:13;23.40;61.90
69595;DHT22;56800;52.142;5.364;2023-07-09T04:40:40;23.40;61.00
69595;DHT22;56800;52.142;5.364;2023-07-09T04:43:07;23.40;61.10
69595;DHT22;56800;52.142;5.364;2023-07-09T04:45:34;23.40;61.10
69595;DHT22;56800;52.142;5.364;2023-07-09T04:48:01;23.50;61.20
69595;DHT22;56800;52.142;5.364;2023-07-09T04:50:28;23.50;61.20
69595;DHT22;56800;52.142;5.364;2023-07-09T04:52:55;23.50;61.10
69595;DHT22;56800;52.142;5.364;2023-07-09T04:55:21;23.50;61.20
69595;DHT22;56800;52.142;5.364;2023-07-09T04:57:48;23.50;61.20
69595;DHT22;56800;52.142;5.364;2023-07-09T05:00:15;23.60;61.30
69595;DHT22;56800;52.142;5.364;2023-07-09T05:02:42;23.60;61.30
69595;DHT22;56800;52.142;5.364;2023-07-09T05:05:09;23.60;61.30
69595;DHT22;56800;52.142;5.364;2023-07-09T05:07:38;23.70;61.30
69595;DHT22;56800;52.142;5.364;2023-07-09T05:10:06;23.70;61.30
69595;DHT22;56800;52.142;5.364;2023-07-09T05:12:33;23.70;61.20
69595;DHT22;56800;52.142;5.364;2023-07-09T05:15:00;23.70;61.30
69595;DHT22;56800;52.142;5.364;2023-07-09T05:17:27;23.80;61.40
69595;DHT22;56800;52.142;5.364;2023-07-09T05:19:54;23.80;61.40
69595;DHT22;56800;52.142;5.364;2023-07-09T05:22:21;23.80;61.50
69595;DHT22;56800;52.142;5.364;2023-07-09T05:24:47;23.90;61.60
69595;DHT22;56800;52.142;5.364;2023-07-09T05:27:14;23.90;61.60
69595;DHT22;56800;52.142;5.364;2023-07-09T05:29:41;23.90;61.50
69595;DHT22;56800;52.142;5.364;2023-07-09T05:32:08;23.90;61.50
69595;DHT22;56800;52.142;5.364;2023-07-09T05:34:34;24.00;61.60
69595;DHT22;56800;52.142;5.364;2023-07-09T05:37:01;24.00;61.80
69595;DHT22;56800;52.142;5.364;2023-07-09T05:39:28;24.10;61.80
69595;DHT22;56800;52.142;5.364;2023-07-09T05:41:54;24.10;61.80
69595;DHT22;56800;52.142;5.364;2023-07-09T05:44:21;24.10;61.90
69595;DHT22;56800;52.142;5.364;2023-07-09T05:46:48;24.10;62.00
69595;DHT22;56800;52.142;5.364;2023-07-09T05:49:15;24.20;62.10
69595;DHT22;56800;52.142;5.364;2023-07-09T05:51:41;24.20;62.20
69595;DHT22;56800;52.142;5.364;2023-07-09T05:54:09;24.20;62.20
69595;DHT22;56800;52.142;5.364;2023-07-09T05:56:35;24.30;62.20
69595;DHT22;56800;52.142;5.364;2023-07-09T05:59:02;24.30;62.30
69595;DHT22;56800;52.142;5.364;2023-07-09T06:01:29;24.30;62.40
69595;DHT22;56800;52.142;5.364;2023-07-09T06:03:55;24.40;62.50
69595;DHT22;56800;52.142;5.364;2023-07-09T06:06:23;24.40;62.50
69595;DHT22;56800;52.142;5.364;2023-07-09T06:08:50;24.40;62.60
69595;DHT22;56800;52.142;5.364;2023-07-09T06:11:17;24.40;62.70
69595;DHT22;56800;52.142;5.364;2023-07-09T06:13:46;24.50;62.90
69595;DHT22;56800;52.142;5.364;2023-07-09T06:16:15;24.50;63.10
69595;DHT22;56800;52.142;5.364;2023-07-09T06:18:42;24.50;63.30
69595;DHT22;56800;52.142;5.364;2023-07-09T06:21:08;24.60;64.30
69595;DHT22;56800;52.142;5.364;2023-07-09T06:23:38;24.60;63.70
69595;DHT22;56800;52.142;5.364;2023-07-09T06:26:05;24.70;63.70
69595;DHT22;56800;52.142;5.364;2023-07-09T06:28:32;24.70;63.90
69595;DHT22;56800;52.142;5.364;2023-07-09T06:30:59;24.70;64.00
69595;DHT22;56800;52.142;5.364;2023-07-09T06:33:27;24.80;64.20
69595;DHT22;56800;52.142;5.364;2023-07-09T06:35:57;24.80;64.20
69595;DHT22;56800;52.142;5.364;2023-07-09T06:38:26;24.80;64.20
69595;DHT22;56800;52.142;5.364;2023-07-09T06:40:53;24.90;64.30
69595;DHT22;56800;52.142;5.364;2023-07-09T06:43:20;24.90;64.20
69595;DHT22;56800;52.142;5.364;2023-07-09T06:45:58;24.90;64.20
69595;DHT22;56800;52.142;5.364;2023-07-09T06:48:27;25.00;64.30
69595;DHT22;56800;52.142;5.364;2023-07-09T06:50:56;25.00;64.30
69595;DHT22;56800;52.142;5.364;2023-07-09T06:53:24;25.10;64.20
69595;DHT22;56800;52.142;5.364;2023-07-09T06:55:51;25.20;65.00
69595;DHT22;56800;52.142;5.364;2023-07-09T06:58:22;25.20;64.10
69595;DHT22;56800;52.142;5.364;2023-07-09T07:00:49;25.30;63.90
69595;DHT22;56800;52.142;5.364;2023-07-09T07:03:16;25.40;63.90
69595;DHT22;56800;52.142;5.364;2023-07-09T07:05:48;25.50;64.00
69595;DHT22;56800;52.142;5.364;2023-07-09T07:08:21;25.60;64.10
69595;DHT22;56800;52.142;5.364;2023-07-09T07:10:55;25.60;64.20
69595;DHT22;56800;52.142;5.364;2023-07-09T07:13:30;25.70;63.30
69595;DHT22;56800;52.142;5.364;2023-07-09T07:15:57;25.90;63.20
69595;DHT22;56800;52.142;5.364;2023-07-09T07:18:25;25.90;63.40
69595;DHT22;56800;52.142;5.364;2023-07-09T07:20:51;26.00;63.30
69595;DHT22;56800;52.142;5.364;2023-07-09T07:23:18;26.10;63.30
69595;DHT22;56800;52.142;5.364;2023-07-09T07:25:46;26.10;63.50
69595;DHT22;56800;52.142;5.364;2023-07-09T07:28:14;26.20;64.20
69595;DHT22;56800;52.142;5.364;2023-07-09T07:30:40;26.30;63.30
69595;DHT22;56800;52.142;5.364;2023-07-09T07:33:07;26.40;63.30
69595;DHT22;56800;52.142;5.364;2023-07-09T07:35:34;26.50;63.60
69595;DHT22;56800;52.142;5.364;2023-07-09T07:38:01;26.60;63.70
69595;DHT22;56800;52.142;5.364;2023-07-09T07:40:27;26.70;63.10
69595;DHT22;56800;52.142;5.364;2023-07-09T07:42:54;26.80;63.20
69595;DHT22;56800;52.142;5.364;2023-07-09T07:45:21;26.80;63.00
69595;DHT22;56800;52.142;5.364;2023-07-09T07:47:48;26.90;61.90
69595;DHT22;56800;52.142;5.364;2023-07-09T07:50:18;27.10;61.30
69595;DHT22;56800;52.142;5.364;2023-07-09T07:52:45;27.10;61.50
69595;DHT22;56800;52.142;5.364;2023-07-09T07:55:11;27.20;61.10
69595;DHT22;56800;52.142;5.364;2023-07-09T07:57:45;27.30;61.50
69595;DHT22;56800;52.142;5.364;2023-07-09T08:00:12;27.40;61.50
69595;DHT22;56800;52.142;5.364;2023-07-09T08:02:39;27.50;61.60
69595;DHT22;56800;52.142;5.364;2023-07-09T08:05:06;27.60;61.30
69595;DHT22;56800;52.142;5.364;2023-07-09T08:07:33;27.70;61.30
69595;DHT22;56800;52.142;5.364;2023-07-09T08:09:59;27.80;61.10
69595;DHT22;56800;52.142;5.364;2023-07-09T08:12:26;27.90;60.90
69595;DHT22;56800;52.142;5.364;2023-07-09T08:14:53;28.00;61.10
69595;DHT22;56800;52.142;5.364;2023-07-09T08:17:20;28.10;61.30
69595;DHT22;56800;52.142;5.364;2023-07-09T08:19:50;28.10;60.90
69595;DHT22;56800;52.142;5.364;2023-07-09T08:22:17;28.20;60.20
69595;DHT22;56800;52.142;5.364;2023-07-09T08:24:50;28.30;60.30
69595;DHT22;56800;52.142;5.364;2023-07-09T08:27:18;28.40;59.60
69595;DHT22;56800;52.142;5.364;2023-07-09T08:29:46;28.40;57.40
69595;DHT22;56800;52.142;5.364;2023-07-09T08:32:13;28.60;57.60
69595;DHT22;56800;52.142;5.364;2023-07-09T08:34:41;28.60;56.50
69595;DHT22;56800;52.142;5.364;2023-07-09T08:37:28;28.70;55.60
69595;DHT22;56800;52.142;5.364;2023-07-09T08:39:55;28.80;56.10
69595;DHT22;56800;52.142;5.364;2023-07-09T08:42:30;28.90;55.90
69595;DHT22;56800;52.142;5.364;2023-07-09T08:50:32;29.10;56.60
69595;DHT22;56800;52.142;5.364;2023-07-09T08:53:02;29.20;56.50
69595;DHT22;56800;52.142;5.364;2023-07-09T08:55:31;29.30;56.20
69595;DHT22;56800;52.142;5.364;2023-07-09T08:58:14;29.30;56.00
69595;DHT22;56800;52.142;5.364;2023-07-09T09:00:51;29.40;56.00
69595;DHT22;56800;52.142;5.364;2023-07-09T09:05:49;29.40;55.30
69595;DHT22;56800;52.142;5.364;2023-07-09T09:10:56;29.50;55.50
69595;DHT22;56800;52.142;5.364;2023-07-09T09:13:26;29.60;55.90
69595;DHT22;56800;52.142;5.364;2023-07-09T09:15:56;29.60;55.90
69595;DHT22;56800;52.142;5.364;2023-07-09T09:18:31;29.70;55.90
69595;DHT22;56800;52.142;5.364;2023-07-09T09:21:07;29.80;55.80
69595;DHT22;56800;52.142;5.364;2023-07-09T09:23:40;29.90;55.30
69595;DHT22;56800;52.142;5.364;2023-07-09T09:26:18;30.00;55.50
69595;DHT22;56800;52.142;5.364;2023-07-09T09:28:46;30.10;55.40
69595;DHT22;56800;52.142;5.364;2023-07-09T09:31:14;30.20;55.40
69595;DHT22;56800;52.142;5.364;2023-07-09T09:33:43;30.20;55.40
69595;DHT22;56800;52.142;5.364;2023-07-09T09:36:16;30.30;55.10
69595;DHT22;56800;52.142;5.364;2023-07-09T09:38:43;30.40;54.70
69595;DHT22;56800;52.142;5.364;2023-07-09T09:41:22;30.50;55.10
69595;DHT22;56800;52.142;5.364;2023-07-09T09:43:53;30.60;54.80
69595;DHT22;56800;52.142;5.364;2023-07-09T09:46:24;30.60;55.10
69595;DHT22;56800;52.142;5.364;2023-07-09T09:48:54;30.70;54.70
69595;DHT22;56800;52.142;5.364;2023-07-09T09:51:23;30.80;54.70
69595;DHT22;56800;52.142;5.364;2023-07-09T09:54:01;30.90;54.50
69595;DHT22;56800;52.142;5.364;2023-07-09T09:56:30;31.00;54.00
69595;DHT22;56800;52.142;5.364;2023-07-09T09:58:58;31.10;54.20
69595;DHT22;56800;52.142;5.364;2023-07-09T10:01:30;31.20;54.00
69595;DHT22;56800;52.142;5.364;2023-07-09T10:03:59;31.20;53.40
69595;DHT22;56800;52.142;5.364;2023-07-09T10:06:45;31.30;53.50
69595;DHT22;56800;52.142;5.364;2023-07-09T10:09:19;31.40;53.20
69595;DHT22;56800;52.142;5.364;2023-07-09T10:17:20;31.70;52.80
69595;DHT22;56800;52.142;5.364;2023-07-09T10:20:15;31.70;52.60
69595;DHT22;56800;52.142;5.364;2023-07-09T10:37:11;32.30;50.50
69595;DHT22;56800;52.142;5.364;2023-07-09T10:39:49;32.40;50.60
69595;DHT22;56800;52.142;5.364;2023-07-09T10:42:44;32.50;50.20
69595;DHT22;56800;52.142;5.364;2023-07-09T10:45:15;32.60;50.50
69595;DHT22;56800;52.142;5.364;2023-07-09T10:47:45;32.70;50.10
69595;DHT22;56800;52.142;5.364;2023-07-09T10:50:33;32.70;50.30
69595;DHT22;56800;52.142;5.364;2023-07-09T10:53:09;32.80;49.30
69595;DHT22;56800;52.142;5.364;2023-07-09T10:56:01;32.80;49.50
69595;DHT22;56800;52.142;5.364;2023-07-09T10:58:53;32.90;49.00
69595;DHT22;56800;52.142;5.364;2023-07-09T11:01:33;32.90;48.90
69595;DHT22;56800;52.142;5.364;2023-07-09T11:04:28;33.00;49.00
69595;DHT22;56800;52.142;5.364;2023-07-09T11:06:53;33.00;47.40
69595;DHT22;56800;52.142;5.364;2023-07-09T11:09:39;32.90;47.70
69595;DHT22;56800;52.142;5.364;2023-07-09T11:15:14;32.60;49.50
69595;DHT22;56800;52.142;5.364;2023-07-09T11:17:44;32.70;49.20
69595;DHT22;56800;52.142;5.364;2023-07-09T11:20:55;32.50;48.80
69595;DHT22;56800;52.142;5.364;2023-07-09T11:23:19;32.40;48.10
69595;DHT22;56800;52.142;5.364;2023-07-09T11:26:00;32.40;48.30
69595;DHT22;56800;52.142;5.364;2023-07-09T11:28:35;32.30;48.10
69595;DHT22;56800;52.142;5.364;2023-07-09T11:31:07;32.30;47.90
69595;DHT22;56800;52.142;5.364;2023-07-09T11:33:46;32.40;48.10
69595;DHT22;56800;52.142;5.364;2023-07-09T11:36:24;32.30;47.90
69595;DHT22;56800;52.142;5.364;2023-07-09T11:38:52;32.30;48.30
69595;DHT22;56800;52.142;5.364;2023-07-09T11:46:57;32.10;47.60
69595;DHT22;56800;52.142;5.364;2023-07-09T11:49:31;32.10;47.60
69595;DHT22;56800;52.142;5.364;2023-07-09T11:52:04;32.00;47.80
69595;DHT22;56800;52.142;5.364;2023-07-09T11:54:36;32.00;47.70
69595;DHT22;56800;52.142;5.364;2023-07-09T11:57:10;32.00;47.30
69595;DHT22;56800;52.142;5.364;2023-07-09T11:59:39;32.00;46.70
69595;DHT22;56800;52.142;5.364;2023-07-09T12:02:13;31.90;46.40
69595;DHT22;56800;52.142;5.364;2023-07-09T12:04:42;31.80;46.30
69595;DHT22;56800;52.142;5.364;2023-07-09T12:07:12;31.70;46.40
69595;DHT22;56800;52.142;5.364;2023-07-09T12:09:46;31.70;46.20
69595;DHT22;56800;52.142;5.364;2023-07-09T12:12:22;31.50;46.20
69595;DHT22;56800;52.142;5.364;2023-07-09T12:14:49;31.40;46.40
69595;DHT22;56800;52.142;5.364;2023-07-09T12:17:16;31.30;46.40
69595;DHT22;56800;52.142;5.364;2023-07-09T12:19:44;31.20;46.40
69595;DHT22;56800;52.142;5.364;2023-07-09T12:22:17;31.10;46.70
69595;DHT22;56800;52.142;5.364;2023-07-09T12:24:47;31.00;46.60
69595;DHT22;56800;52.142;5.364;2023-07-09T12:27:23;30.90;47.10
69595;DHT22;56800;52.142;5.364;2023-07-09T12:29:53;30.80;47.40
69595;DHT22;56800;52.142;5.364;2023-07-09T12:32:21;30.70;47.10
69595;DHT22;56800;52.142;5.364;2023-07-09T12:34:55;30.60;47.00
69595;DHT22;56800;52.142;5.364;2023-07-09T12:37:31;30.70;47.60
69595;DHT22;56800;52.142;5.364;2023-07-09T12:40:00;30.80;48.20
69595;DHT22;56800;52.142;5.364;2023-07-09T12:42:33;30.80;48.10
69595;DHT22;56800;52.142;5.364;2023-07-09T12:45:00;30.80;47.90
69595;DHT22;56800;52.142;5.364;2023-07-09T12:47:28;30.90;48.80
69595;DHT22;56800;52.142;5.364;2023-07-09T12:50:02;31.00;47.60
69595;DHT22;56800;52.142;5.364;2023-07-09T12:52:29;31.10;47.40
69595;DHT22;56800;52.142;5.364;2023-07-09T12:55:00;31.00;47.30
69595;DHT22;56800;52.142;5.364;2023-07-09T12:57:28;31.00;47.30
69595;DHT22;56800;52.142;5.364;2023-07-09T12:59:57;30.90;47.50
69595;DHT22;56800;52.142;5.364;2023-07-09T13:02:26;30.90;48.00
69595;DHT22;56800;52.142;5.364;2023-07-09T13:05:06;31.00;48.20
69595;DHT22;56800;52.142;5.364;2023-07-09T13:07:38;31.20;47.80
69595;DHT22;56800;52.142;5.364;2023-07-09T13:10:14;31.20;47.00
69595;DHT22;56800;52.142;5.364;2023-07-09T13:12:45;31.30;46.70
69595;DHT22;56800;52.142;5.364;2023-07-09T13:15:23;31.40;45.60
69595;DHT22;56800;52.142;5.364;2023-07-09T13:17:57;31.40;45.10
69595;DHT22;56800;52.142;5.364;2023-07-09T13:20:24;31.40;46.20
69595;DHT22;56800;52.142;5.364;2023-07-09T13:22:51;31.30;45.10
69595;DHT22;56800;52.142;5.364;2023-07-09T13:25:18;31.20;45.50
69595;DHT22;56800;52.142;5.364;2023-07-09T13:27:58;31.30;45.70
69595;DHT22;56800;52.142;5.364;2023-07-09T13:30:25;31.30;45.70
69595;DHT22;56800;52.142;5.364;2023-07-09T13:32:52;31.30;45.00
69595;DHT22;56800;52.142;5.364;2023-07-09T13:35:19;31.20;44.60
69595;DHT22;56800;52.142;5.364;2023-07-09T13:37:46;31.10;44.60
69595;DHT22;56800;52.142;5.364;2023-07-09T13:40:15;31.00;45.30
69595;DHT22;56800;52.142;5.364;2023-07-09T13:42:43;31.00;44.20
69595;DHT22;56800;52.142;5.364;2023-07-09T13:45:24;30.80;44.00
69595;DHT22;56800;52.142;5.364;2023-07-09T13:47:52;30.50;44.20
69595;DHT22;56800;52.142;5.364;2023-07-09T13:50:19;30.40;44.50
69595;DHT22;56800;52.142;5.364;2023-07-09T13:52:46;30.30;44.90
69595;DHT22;56800;52.142;5.364;2023-07-09T13:55:19;30.10;45.30
69595;DHT22;56800;52.142;5.364;2023-07-09T13:57:48;30.00;45.40
69595;DHT22;56800;52.142;5.364;2023-07-09T14:00:15;29.90;46.70
69595;DHT22;56800;52.142;5.364;2023-07-09T14:02:43;29.70;45.70
69595;DHT22;56800;52.142;5.364;2023-07-09T14:05:12;29.50;45.80
69595;DHT22;56800;52.142;5.364;2023-07-09T14:07:41;29.40;46.00
69595;DHT22;56800;52.142;5.364;2023-07-09T14:10:15;29.30;47.40
69595;DHT22;56800;52.142;5.364;2023-07-09T14:12:45;29.10;46.90
69595;DHT22;56800;52.142;5.364;2023-07-09T14:15:15;29.00;47.30
69595;DHT22;56800;52.142;5.364;2023-07-09T14:17:42;28.90;47.60
69595;DHT22;56800;52.142;5.364;2023-07-09T14:20:14;28.60;48.00
69595;DHT22;56800;52.142;5.364;2023-07-09T14:22:42;28.40;48.30
69595;DHT22;56800;52.142;5.364;2023-07-09T14:25:18;28.20;48.60
69595;DHT22;56800;52.142;5.364;2023-07-09T14:27:45;28.00;49.00
69595;DHT22;56800;52.142;5.364;2023-07-09T14:30:17;27.80;49.50
69595;DHT22;56800;52.142;5.364;2023-07-09T14:32:46;27.50;49.90
69595;DHT22;56800;52.142;5.364;2023-07-09T14:35:22;27.40;50.40
69595;DHT22;56800;52.142;5.364;2023-07-09T14:37:53;27.20;51.10
69595;DHT22;56800;52.142;5.364;2023-07-09T14:40:25;27.00;51.40
69595;DHT22;56800;52.142;5.364;2023-07-09T14:42:52;26.90;51.60
69595;DHT22;56800;52.142;5.364;2023-07-09T14:47:46;26.50;52.20
69595;DHT22;56800;52.142;5.364;2023-07-09T14:50:13;26.40;52.70
69595;DHT22;56800;52.142;5.364;2023-07-09T14:52:41;26.30;53.20
69595;DHT22;56800;52.142;5.364;2023-07-09T14:55:20;26.20;54.20
69595;DHT22;56800;52.142;5.364;2023-07-09T14:57:47;25.90;56.10
69595;DHT22;56800;52.142;5.364;2023-07-09T15:02:43;25.30;58.90
69595;DHT22;56800;52.142;5.364;2023-07-09T15:05:19;25.10;60.50
69595;DHT22;56800;52.142;5.364;2023-07-09T15:07:47;24.90;62.10
69595;DHT22;56800;52.142;5.364;2023-07-09T15:10:16;24.70;62.90
69595;DHT22;56800;52.142;5.364;2023-07-09T15:12:44;24.60;63.70
69595;DHT22;56800;52.142;5.364;2023-07-09T15:15:30;24.60;64.80
69595;DHT22;56800;52.142;5.364;2023-07-09T15:18:00;24.60;65.00
69595;DHT22;56800;52.142;5.364;2023-07-09T15:20:36;24.60;65.00
69595;DHT22;56800;52.142;5.364;2023-07-09T15:23:03;24.60;64.80
69595;DHT22;56800;52.142;5.364;2023-07-09T15:25:30;24.50;64.90
69595;DHT22;56800;52.142;5.364;2023-07-09T15:27:57;24.50;65.20
69595;DHT22;56800;52.142;5.364;2023-07-09T15:30:26;24.50;65.60
69595;DHT22;56800;52.142;5.364;2023-07-09T15:32:55;24.40;66.10
69595;DHT22;56800;52.142;5.364;2023-07-09T15:35:23;24.30;66.40
69595;DHT22;56800;52.142;5.364;2023-07-09T15:37:50;24.30;66.70
69595;DHT22;56800;52.142;5.364;2023-07-09T15:40:26;24.20;66.80
69595;DHT22;56800;52.142;5.364;2023-07-09T15:42:57;24.10;67.20
69595;DHT22;56800;52.142;5.364;2023-07-09T15:45:24;24.00;67.30
69595;DHT22;56800;52.142;5.364;2023-07-09T15:47:52;23.90;67.40
69595;DHT22;56800;52.142;5.364;2023-07-09T15:50:25;23.80;67.60
69595;DHT22;56800;52.142;5.364;2023-07-09T15:52:53;23.70;67.70
69595;DHT22;56800;52.142;5.364;2023-07-09T15:55:23;23.60;67.80
69595;DHT22;56800;52.142;5.364;2023-07-09T15:57:52;23.50;68.20
69595;DHT22;56800;52.142;5.364;2023-07-09T16:02:48;23.40;68.80
69595;DHT22;56800;52.142;5.364;2023-07-09T16:05:26;23.40;69.00
69595;DHT22;56800;52.142;5.364;2023-07-09T16:07:55;23.30;68.90
69595;DHT22;56800;52.142;5.364;2023-07-09T16:10:24;23.30;68.90
69595;DHT22;56800;52.142;5.364;2023-07-09T16:12:52;23.30;68.90
69595;DHT22;56800;52.142;5.364;2023-07-09T16:15:21;23.30;69.00
69595;DHT22;56800;52.142;5.364;2023-07-09T16:17:49;23.20;69.30
69595;DHT22;56800;52.142;5.364;2023-07-09T16:20:24;23.20;69.40
69595;DHT22;56800;52.142;5.364;2023-07-09T16:22:54;23.20;69.40
69595;DHT22;56800;52.142;5.364;2023-07-09T16:25:25;23.20;69.30
69595;DHT22;56800;52.142;5.364;2023-07-09T16:27:52;23.10;69.40
69595;DHT22;56800;52.142;5.364;2023-07-09T16:30:22;23.10;69.40
69595;DHT22;56800;52.142;5.364;2023-07-09T16:32:51;23.10;69.80
69595;DHT22;56800;52.142;5.364;2023-07-09T16:35:20;23.10;69.70
69595;DHT22;56800;52.142;5.364;2023-07-09T16:37:49;23.10;69.90